Terminal Aerodrome Forecast
Issued by NWS Mt. Holly, NJ

Home | Current Version | Previous Version | Text Only | Print | Product List | Glossary On
Versions: 1 2 3 4 5 6 7 8 9 10 11 12 13 14 15 16 17 18 19 20 21 22 23 24 25 26 27
000
FTUS41 KPHI 042024 AAA
TAFILG
TAF AMD
KILG 042024Z 0420/0518 24004KT 3SM -RA BR OVC090
      TEMPO 0421/0423 1SM BR BKN009 OVC090
     FM042300 31006KT 2SM -RA BR OVC007
     FM050600 32008KT 2SM -RAPL BR OVC005
     FM051000 34010KT 1/2SM SN VV002=

USA.gov is the U.S. government's official web portal to all federal, state and local government web resources and services.